Time;durP1;ratioP1;P1;durP2;ratioP2;P2;SDS_P1;SDS_P2;PMS_P1;PMS_P2;Temp;Humidity;BMP_temperature;BMP_pressure;BME280_temperature;BME280_humidity;BME280_pressure;Samples;Min_cycle;Max_cycle;Signal;HPM_P1;HPM_P2
2022/03/20 00:00:38;;;;;;;20.67;13.02;;;0.60;99.90;;;;;;2065402;28;20179;-69
2022/03/20 00:01:39;;;;;;;19.98;11.73;;;0.60;99.90;;;;;;2063983;28;20212;-70
2022/03/20 00:02:40;;;;;;;18.90;11.67;;;0.60;99.90;;;;;;2064640;28;20245;-69
2022/03/20 00:03:41;;;;;;;18.23;11.90;;;0.60;99.90;;;;;;2064035;28;20229;-70
2022/03/20 00:04:42;;;;;;;17.37;10.40;;;0.60;99.90;;;;;;2064278;28;20186;-70
2022/03/20 00:05:46;;;;;;;16.70;10.40;;;0.70;99.90;;;;;;2064418;28;20209;-70
2022/03/20 00:06:47;;;;;;;15.73;9.55;;;0.60;99.90;;;;;;2057001;28;20186;-69
2022/03/20 00:07:47;;;;;;;16.97;9.90;;;0.60;99.90;;;;;;2064762;28;20194;-70
2022/03/20 00:08:52;;;;;;;17.20;10.10;;;0.60;99.90;;;;;;2065130;28;20182;-69
2022/03/20 00:09:52;;;;;;;21.05;11.55;;;0.50;99.90;;;;;;2065062;28;20566;-70
2022/03/20 00:10:59;;;;;;;17.47;10.30;;;0.50;99.90;;;;;;2063891;28;20195;-69
2022/03/20 00:12:00;;;;;;;20.63;10.75;;;0.50;99.90;;;;;;2064260;28;20178;-69
2022/03/20 00:13:03;;;;;;;17.40;9.00;;;0.50;99.90;;;;;;2064930;28;20277;-70
2022/03/20 00:14:04;;;;;;;18.33;11.60;;;0.50;99.90;;;;;;2065895;28;20583;-69
2022/03/20 00:15:06;;;;;;;18.17;10.90;;;0.50;99.90;;;;;;2066944;28;20190;-69
2022/03/20 00:16:07;;;;;;;17.77;11.38;;;0.50;99.90;;;;;;2065502;28;20257;-70
2022/03/20 00:17:07;;;;;;;16.03;9.83;;;0.50;99.90;;;;;;2066364;28;20645;-69
2022/03/20 00:18:14;;;;;;;16.67;10.70;;;0.50;99.90;;;;;;2066848;28;20185;-69
2022/03/20 00:19:14;;;;;;;17.92;10.73;;;0.60;99.90;;;;;;2067242;28;20240;-70
2022/03/20 00:20:15;;;;;;;16.87;11.10;;;0.60;99.90;;;;;;2066822;28;21058;-70
2022/03/20 00:21:15;;;;;;;20.50;12.70;;;0.60;99.90;;;;;;2073709;28;20629;-69
2022/03/20 00:22:16;;;;;;;19.80;10.67;;;0.60;99.90;;;;;;2066066;28;20182;-70
2022/03/20 00:23:18;;;;;;;17.33;10.97;;;0.50;99.90;;;;;;2058048;28;20225;-69
2022/03/20 00:24:20;;;;;;;19.70;11.75;;;0.40;99.90;;;;;;2057553;28;20190;-69
2022/03/20 00:25:21;;;;;;;21.38;11.27;;;0.50;99.90;;;;;;2066086;28;20214;-69
2022/03/20 00:26:22;;;;;;;17.17;11.23;;;0.50;99.90;;;;;;2058074;28;20186;-69
2022/03/20 00:27:22;;;;;;;18.87;11.73;;;0.40;99.90;;;;;;2058226;28;20671;-70
2022/03/20 00:28:25;;;;;;;18.77;11.30;;;0.40;99.90;;;;;;2058045;28;20195;-69
2022/03/20 00:29:27;;;;;;;17.17;11.27;;;0.40;99.90;;;;;;2050610;28;20180;-69
2022/03/20 00:30:28;;;;;;;19.35;11.35;;;0.40;99.90;;;;;;2058066;28;20255;-69
2022/03/20 00:31:32;;;;;;;19.83;11.43;;;0.40;99.90;;;;;;2058161;28;20205;-69
2022/03/20 00:32:33;;;;;;;17.27;11.63;;;0.30;99.90;;;;;;2050298;28;20203;-70
2022/03/20 00:33:34;;;;;;;21.73;11.80;;;0.40;99.90;;;;;;2051498;28;20227;-69
2022/03/20 00:34:35;;;;;;;18.17;11.95;;;0.40;99.90;;;;;;2066735;28;20180;-69
2022/03/20 00:35:36;;;;;;;20.13;12.10;;;0.40;99.90;;;;;;2066109;28;20194;-69
2022/03/20 00:36:37;;;;;;;23.17;12.80;;;0.30;99.90;;;;;;2058313;28;20186;-70
2022/03/20 00:37:37;;;;;;;21.20;11.03;;;0.20;99.90;;;;;;2066305;28;20190;-70
2022/03/20 00:38:38;;;;;;;22.63;12.83;;;0.30;99.90;;;;;;2066704;28;20229;-69
2022/03/20 00:39:39;;;;;;;18.33;11.80;;;0.30;99.90;;;;;;2066673;28;20201;-70
2022/03/20 00:40:39;;;;;;;22.00;12.73;;;0.30;99.90;;;;;;2066833;28;20651;-69
2022/03/20 00:41:40;;;;;;;21.30;11.87;;;0.20;99.90;;;;;;2066253;28;20201;-69
2022/03/20 00:42:41;;;;;;;18.67;11.47;;;0.20;99.90;;;;;;2066228;28;20214;-70
2022/03/20 00:43:42;;;;;;;20.60;11.73;;;0.10;99.90;;;;;;2057543;28;20210;-70
2022/03/20 00:44:42;;;;;;;23.60;12.97;;;0.10;99.90;;;;;;2066596;28;20179;-69
2022/03/20 00:45:43;;;;;;;20.83;12.93;;;0.10;99.90;;;;;;2066727;28;20182;-70
2022/03/20 00:46:44;;;;;;;20.57;12.80;;;0.10;99.90;;;;;;2066260;28;20175;-69
2022/03/20 00:47:45;;;;;;;19.07;10.87;;;0.20;99.90;;;;;;2066483;28;20269;-69
2022/03/20 00:48:45;;;;;;;20.40;12.18;;;0.20;99.90;;;;;;2066305;28;20193;-70
2022/03/20 00:49:46;;;;;;;22.07;12.37;;;0.30;99.90;;;;;;2065859;28;20567;-69
2022/03/20 00:50:47;;;;;;;22.30;11.77;;;0.30;99.90;;;;;;2066882;28;20513;-69
2022/03/20 00:51:47;;;;;;;20.00;12.33;;;0.30;99.90;;;;;;2066248;28;20189;-69
2022/03/20 00:52:48;;;;;;;21.37;13.03;;;0.40;99.90;;;;;;2067200;28;20242;-69
2022/03/20 00:53:49;;;;;;;24.10;13.00;;;0.40;99.90;;;;;;2060525;28;20245;-69
2022/03/20 00:54:50;;;;;;;19.60;12.60;;;0.50;99.90;;;;;;2068298;28;20185;-69
2022/03/20 00:55:50;;;;;;;20.67;12.37;;;0.50;99.90;;;;;;2067998;28;20674;-69
2022/03/20 00:56:52;;;;;;;21.10;11.70;;;0.40;99.90;;;;;;2067928;28;20185;-71
2022/03/20 00:57:53;;;;;;;25.42;14.13;;;0.40;99.90;;;;;;2068715;28;20178;-69
2022/03/20 00:58:54;;;;;;;21.90;12.47;;;0.40;99.90;;;;;;2068080;28;20594;-69
2022/03/20 00:59:54;;;;;;;20.57;12.50;;;0.40;99.90;;;;;;2068142;28;20534;-69
2022/03/20 01:00:55;;;;;;;21.73;12.90;;;0.40;99.90;;;;;;2068119;28;20186;-69
2022/03/20 01:01:56;;;;;;;22.67;13.90;;;0.40;99.90;;;;;;2065561;28;20182;-70
2022/03/20 01:02:56;;;;;;;25.87;13.63;;;0.30;99.90;;;;;;2066709;28;20241;-69
2022/03/20 01:03:57;;;;;;;20.97;13.50;;;0.30;99.90;;;;;;2066438;28;20171;-69
2022/03/20 01:04:58;;;;;;;23.97;13.77;;;0.20;99.90;;;;;;2065953;28;20571;-69
2022/03/20 01:05:58;;;;;;;20.37;11.83;;;0.30;99.90;;;;;;2066122;28;20728;-70
2022/03/20 01:07:00;;;;;;;26.43;13.60;;;0.30;99.90;;;;;;2066703;28;20649;-70
2022/03/20 01:08:01;;;;;;;21.83;13.80;;;0.40;99.90;;;;;;2066063;28;20190;-70
2022/03/20 01:09:02;;;;;;;19.30;11.70;;;0.50;99.90;;;;;;2065915;28;20194;-70
2022/03/20 01:10:05;;;;;;;19.95;12.05;;;0.50;99.90;;;;;;2065757;28;20277;-70
2022/03/20 01:11:07;;;;;;;22.15;13.98;;;0.50;99.90;;;;;;2065583;28;20182;-69
2022/03/20 01:12:08;;;;;;;20.00;12.85;;;0.60;99.90;;;;;;2073923;28;20185;-70
2022/03/20 01:13:09;;;;;;;22.08;13.38;;;0.60;99.90;;;;;;2074099;28;20203;-70
2022/03/20 01:14:11;;;;;;;21.63;12.90;;;0.60;99.90;;;;;;2074057;28;20181;-71
2022/03/20 01:15:13;;;;;;;21.42;13.18;;;0.60;99.90;;;;;;2073569;28;20197;-71
2022/03/20 01:16:13;;;;;;;21.58;13.18;;;0.60;99.90;;;;;;2066663;28;20745;-70
2022/03/20 01:17:14;;;;;;;23.27;14.07;;;0.50;99.90;;;;;;2066517;28;20194;-69
2022/03/20 01:18:15;;;;;;;23.07;13.23;;;0.50;99.90;;;;;;2066562;28;20181;-70
2022/03/20 01:19:15;;;;;;;23.40;13.77;;;0.50;99.90;;;;;;2066665;28;20573;-70
2022/03/20 01:20:16;;;;;;;22.20;12.13;;;0.40;99.90;;;;;;2066027;28;20187;-71
2022/03/20 01:21:17;;;;;;;23.03;13.10;;;0.40;99.90;;;;;;2065471;28;20186;-70
2022/03/20 01:22:18;;;;;;;21.90;12.82;;;0.40;99.90;;;;;;2065819;28;20269;-71
2022/03/20 01:23:21;;;;;;;19.87;12.40;;;0.40;99.90;;;;;;2065687;28;20700;-70
2022/03/20 01:24:27;;;;;;;25.95;15.15;;;0.40;99.90;;;;;;2065684;28;20191;-70
2022/03/20 01:25:30;;;;;;;20.23;12.57;;;0.40;99.90;;;;;;2065851;28;20634;-70
2022/03/20 01:26:30;;;;;;;22.17;12.80;;;0.40;99.90;;;;;;2058504;28;20671;-70
2022/03/20 01:27:31;;;;;;;21.13;11.63;;;0.40;99.90;;;;;;2058005;28;20223;-70
2022/03/20 01:28:32;;;;;;;21.17;13.37;;;0.40;99.90;;;;;;2065835;28;20186;-70
2022/03/20 01:29:34;;;;;;;18.73;12.37;;;0.40;99.90;;;;;;2065739;28;20171;-70
2022/03/20 01:30:34;;;;;;;21.10;12.93;;;0.40;99.90;;;;;;2058089;28;20175;-70
2022/03/20 01:31:36;;;;;;;21.37;12.83;;;0.40;99.90;;;;;;2065219;28;20225;-70
2022/03/20 01:32:37;;;;;;;21.63;12.02;;;0.40;99.90;;;;;;2065283;28;20269;-70
2022/03/20 01:33:37;;;;;;;20.93;12.83;;;0.40;99.90;;;;;;2065944;28;20233;-69
2022/03/20 01:34:39;;;;;;;25.97;14.23;;;0.50;99.90;;;;;;2066583;28;20178;-70
2022/03/20 01:35:39;;;;;;;22.63;13.07;;;0.50;99.90;;;;;;2066360;28;20273;-70
2022/03/20 01:36:41;;;;;;;24.03;14.00;;;0.50;99.90;;;;;;2066446;28;20183;-70
2022/03/20 01:37:41;;;;;;;24.23;14.20;;;0.50;99.90;;;;;;2065790;28;20508;-70
2022/03/20 01:38:42;;;;;;;23.43;13.57;;;0.50;99.90;;;;;;2049914;28;20183;-70
2022/03/20 01:39:43;;;;;;;26.13;14.80;;;0.50;99.90;;;;;;2057587;28;20179;-70
2022/03/20 01:40:43;;;;;;;21.67;13.00;;;0.50;99.90;;;;;;2066239;28;20174;-70
2022/03/20 01:41:46;;;;;;;18.93;12.10;;;0.50;99.90;;;;;;2065084;28;20202;-70
2022/03/20 01:42:48;;;;;;;16.63;10.45;;;0.50;99.90;;;;;;2065737;28;20210;-70
2022/03/20 01:43:59;;;;;;;21.20;11.50;;;0.50;99.90;;;;;;2065792;28;20359;-69
2022/03/20 01:44:59;;;;;;;19.60;11.48;;;0.50;99.90;;;;;;2065876;28;20721;-70
2022/03/20 01:46:00;;;;;;;21.03;10.53;;;0.50;99.90;;;;;;2072854;28;20204;-69
2022/03/20 01:47:02;;;;;;;21.83;12.70;;;0.50;99.90;;;;;;2065947;28;20174;-70
2022/03/20 01:48:03;;;;;;;18.95;11.70;;;0.40;99.90;;;;;;2065293;28;20677;-70
2022/03/20 01:49:03;;;;;;;23.15;13.55;;;0.40;99.90;;;;;;2065431;28;20190;-69
2022/03/20 01:50:05;;;;;;;23.57;13.37;;;0.40;99.90;;;;;;2073388;28;20205;-70
2022/03/20 01:51:05;;;;;;;23.23;13.75;;;0.30;99.90;;;;;;2073005;28;20212;-70
2022/03/20 01:52:24;;;;;;;21.13;13.80;;;0.20;99.90;;;;;;2066185;28;20269;-69
2022/03/20 01:53:26;;;;;;;23.58;12.55;;;0.30;99.90;;;;;;2066019;28;20202;-69
2022/03/20 01:54:27;;;;;;;20.77;12.38;;;0.30;99.90;;;;;;2066185;28;20198;-70
2022/03/20 01:55:28;;;;;;;21.33;12.30;;;0.30;99.90;;;;;;2066424;28;20189;-70
2022/03/20 01:56:32;;;;;;;22.60;12.63;;;0.30;99.90;;;;;;2065390;28;20185;-70
2022/03/20 01:57:36;;;;;;;21.20;12.95;;;0.40;99.90;;;;;;2065852;28;20222;-70
2022/03/20 01:58:38;;;;;;;20.25;12.48;;;0.40;99.90;;;;;;2065560;28;20225;-70
2022/03/20 01:59:39;;;;;;;21.50;13.02;;;0.30;99.90;;;;;;2065605;28;20183;-70
2022/03/20 02:00:39;;;;;;;26.73;15.48;;;0.20;99.90;;;;;;2065177;28;20185;-70
2022/03/20 02:01:40;;;;;;;26.70;14.77;;;0.20;99.90;;;;;;2064587;28;20213;-70
2022/03/20 02:02:41;;;;;;;24.47;15.13;;;0.30;99.90;;;;;;2065357;28;20206;-69
2022/03/20 02:03:42;;;;;;;23.50;13.37;;;0.30;99.90;;;;;;2056636;28;20239;-70
2022/03/20 02:04:43;;;;;;;22.53;13.20;;;0.40;99.90;;;;;;2065334;28;20602;-69
2022/03/20 02:05:43;;;;;;;20.13;12.65;;;0.40;99.90;;;;;;2066277;28;20652;-70
2022/03/20 02:06:45;;;;;;;21.50;12.43;;;0.50;99.90;;;;;;2065948;28;20174;-70
2022/03/20 02:07:47;;;;;;;23.25;11.93;;;0.50;99.90;;;;;;2065534;28;20186;-70
2022/03/20 02:08:47;;;;;;;22.67;12.98;;;0.50;99.90;;;;;;2065989;28;20264;-71
2022/03/20 02:09:48;;;;;;;20.97;11.30;;;0.50;99.90;;;;;;2067605;28;20194;-70
2022/03/20 02:10:49;;;;;;;18.45;11.30;;;0.60;99.90;;;;;;2057248;28;20175;-70
2022/03/20 02:11:50;;;;;;;20.20;11.27;;;0.60;99.90;;;;;;2064648;28;20174;-70
2022/03/20 02:12:51;;;;;;;21.17;11.98;;;0.60;99.90;;;;;;2065024;28;20186;-70
2022/03/20 02:13:53;;;;;;;16.53;11.17;;;0.60;99.90;;;;;;2065748;28;20228;-69
2022/03/20 02:14:55;;;;;;;18.08;10.85;;;0.60;99.90;;;;;;2064883;28;20269;-70
2022/03/20 02:15:56;;;;;;;20.30;11.75;;;0.60;99.90;;;;;;2064120;28;20190;-69
2022/03/20 02:16:57;;;;;;;18.73;11.13;;;0.60;99.90;;;;;;2057153;28;20179;-71
2022/03/20 02:17:58;;;;;;;20.40;12.00;;;0.60;99.90;;;;;;2057341;28;20183;-70
2022/03/20 02:18:59;;;;;;;19.63;12.32;;;0.60;99.90;;;;;;2057459;28;20186;-70
2022/03/20 02:20:03;;;;;;;21.05;11.45;;;0.60;99.90;;;;;;2057021;28;20314;-70
2022/03/20 02:21:04;;;;;;;17.75;11.20;;;0.60;99.90;;;;;;2056767;28;20249;-71
2022/03/20 02:22:06;;;;;;;17.87;10.77;;;0.70;99.90;;;;;;2057207;28;20344;-69
2022/03/20 02:23:07;;;;;;;17.92;11.00;;;0.80;99.90;;;;;;2057104;28;20333;-69
2022/03/20 02:24:41;;;;;;;18.42;11.48;;;0.70;99.90;;;;;;2057162;28;20225;-70
2022/03/20 02:25:51;;;;;;;20.45;11.30;;;0.70;99.90;;;;;;2060599;28;20266;-70
2022/03/20 02:27:16;;;;;;;18.13;10.77;;;0.70;99.90;;;;;;2065336;28;20175;-70
2022/03/20 02:28:18;;;;;;;19.40;11.80;;;0.60;99.90;;;;;;2065608;28;20185;-70
2022/03/20 02:29:18;;;;;;;20.88;12.18;;;0.60;99.90;;;;;;2057525;28;20214;-70
2022/03/20 02:30:19;;;;;;;20.47;12.43;;;0.60;99.90;;;;;;2065364;28;20181;-69
2022/03/20 02:31:21;;;;;;;20.83;12.97;;;0.60;99.90;;;;;;2065211;28;20175;-70
2022/03/20 02:32:25;;;;;;;21.45;11.55;;;0.70;99.90;;;;;;2065699;28;20190;-69
2022/03/20 02:33:27;;;;;;;21.77;13.20;;;0.70;99.90;;;;;;2064915;28;20273;-70
2022/03/20 02:34:30;;;;;;;23.70;13.38;;;0.70;99.90;;;;;;2065570;28;20208;-70
2022/03/20 02:35:32;;;;;;;21.40;12.82;;;0.80;99.90;;;;;;2065684;28;20182;-69
2022/03/20 02:36:36;;;;;;;19.58;12.85;;;0.90;99.90;;;;;;2064807;28;20245;-69
2022/03/20 02:37:47;;;;;;;21.75;13.07;;;0.90;99.90;;;;;;2064520;28;20193;-69
2022/03/20 02:38:48;;;;;;;20.85;11.20;;;1.00;99.90;;;;;;2065760;28;20532;-70
2022/03/20 02:39:52;;;;;;;22.97;13.47;;;1.00;99.90;;;;;;2065030;28;20250;-70
2022/03/20 02:40:54;;;;;;;22.63;13.15;;;1.00;99.90;;;;;;2065734;28;20298;-69
2022/03/20 02:41:57;;;;;;;21.05;11.77;;;1.00;99.90;;;;;;2064496;28;20258;-69
2022/03/20 02:43:03;;;;;;;19.35;12.63;;;1.00;99.90;;;;;;2057696;28;20211;-70
2022/03/20 02:44:03;;;;;;;20.15;11.82;;;1.00;99.90;;;;;;2065323;28;20186;-70
2022/03/20 02:45:17;;;;;;;20.57;11.97;;;1.00;99.90;;;;;;2065301;28;20280;-70
2022/03/20 02:46:17;;;;;;;18.73;11.68;;;1.10;99.90;;;;;;2065636;28;20170;-69
2022/03/20 02:47:25;;;;;;;22.67;12.40;;;1.00;99.90;;;;;;2065753;28;20711;-70
2022/03/20 02:48:26;;;;;;;18.35;11.38;;;1.10;99.90;;;;;;2065871;28;20586;-70
2022/03/20 02:49:27;;;;;;;20.38;12.68;;;1.10;99.90;;;;;;2065421;28;20194;-69
2022/03/20 02:50:34;;;;;;;23.90;13.13;;;1.10;99.90;;;;;;2057003;28;20214;-70
2022/03/20 02:51:38;;;;;;;23.23;12.63;;;1.20;99.90;;;;;;2050368;28;20160;-73
2022/03/20 02:52:54;;;;;;;19.10;11.30;;;1.20;99.90;;;;;;2057229;28;20214;-69
2022/03/20 02:53:55;;;;;;;18.65;11.10;;;1.20;99.90;;;;;;2065519;28;20209;-70
2022/03/20 02:55:01;;;;;;;20.98;12.75;;;1.10;99.90;;;;;;2065582;28;20202;-70
2022/03/20 02:56:03;;;;;;;20.65;12.48;;;1.20;99.90;;;;;;2065170;28;20956;-69
2022/03/20 02:57:08;;;;;;;19.27;11.65;;;1.20;99.90;;;;;;2064419;28;20256;-70
2022/03/20 02:58:16;;;;;;;15.77;10.95;;;1.20;99.90;;;;;;2064978;28;20178;-70
2022/03/20 02:59:17;;;;;;;19.10;10.90;;;1.20;99.90;;;;;;2065709;28;20166;-69
2022/03/20 03:00:25;;;;;;;22.03;13.63;;;1.30;99.90;;;;;;2072942;28;20216;-69
2022/03/20 03:01:26;;;;;;;20.63;13.45;;;1.30;99.90;;;;;;2071274;28;20267;-70
2022/03/20 03:02:30;;;;;;;21.43;13.03;;;1.30;99.90;;;;;;2065647;28;20662;-70
2022/03/20 03:03:31;;;;;;;22.77;14.02;;;1.30;99.90;;;;;;2065980;28;20198;-70
2022/03/20 03:04:31;;;;;;;21.23;13.48;;;1.40;99.90;;;;;;2065362;28;20455;-70
2022/03/20 03:05:32;;;;;;;20.50;13.23;;;1.40;99.90;;;;;;2064950;28;20190;-70
2022/03/20 03:06:33;;;;;;;19.42;11.95;;;1.40;99.90;;;;;;2065045;28;20210;-70
2022/03/20 03:10:55;;;;;;;18.67;12.47;;;1.40;99.90;;;;;;2065514;28;20186;-69
2022/03/20 03:11:35;;;;;;;17.77;10.48;;;1.50;99.90;;;;;;2064982;28;20190;-70
2022/03/20 03:12:35;;;;;;;24.30;12.20;;;1.50;99.90;;;;;;2064628;28;20178;-70
2022/03/20 03:13:40;;;;;;;20.10;12.43;;;1.60;99.90;;;;;;2064617;28;20204;-70
2022/03/20 03:16:13;;;;;;;20.02;11.25;;;1.50;99.90;;;;;;2064814;28;20198;-70
2022/03/20 03:17:13;;;;;;;18.92;11.85;;;1.50;99.90;;;;;;2065550;28;20167;-69
2022/03/20 03:18:14;;;;;;;17.50;11.20;;;1.50;99.90;;;;;;2065732;28;20186;-69
2022/03/20 03:19:15;;;;;;;19.63;11.10;;;1.50;99.90;;;;;;2064625;28;20246;-70
2022/03/20 03:20:19;;;;;;;21.00;11.90;;;1.50;99.90;;;;;;2064709;28;20309;-70
2022/03/20 03:21:20;;;;;;;20.30;12.63;;;1.50;99.90;;;;;;2064690;28;20216;-69
2022/03/20 03:22:22;;;;;;;19.13;12.07;;;1.50;99.90;;;;;;2064242;28;20174;-70
2022/03/20 03:23:26;;;;;;;19.30;12.98;;;1.40;99.90;;;;;;2065464;28;20217;-69
2022/03/20 03:24:27;;;;;;;20.38;12.68;;;1.40;99.90;;;;;;2065451;28;20273;-69
2022/03/20 03:25:27;;;;;;;20.43;13.27;;;1.40;99.90;;;;;;2065318;28;20182;-70
2022/03/20 03:26:28;;;;;;;23.60;12.43;;;1.40;99.90;;;;;;2064298;28;20201;-69
2022/03/20 03:27:29;;;;;;;18.80;10.57;;;1.40;99.90;;;;;;2064719;28;20277;-70
2022/03/20 03:28:34;;;;;;;20.60;12.53;;;1.50;99.90;;;;;;2064790;28;20183;-69
2022/03/20 03:29:34;;;;;;;18.88;11.70;;;1.60;99.90;;;;;;2065037;28;20177;-70
2022/03/20 03:30:37;;;;;;;19.20;11.97;;;1.60;99.90;;;;;;2065644;28;20742;-70
2022/03/20 03:31:37;;;;;;;17.85;11.70;;;1.60;99.90;;;;;;2064054;28;20238;-70
2022/03/20 03:32:42;;;;;;;20.83;12.83;;;1.50;99.90;;;;;;2064646;28;20202;-69
2022/03/20 03:36:22;;;;;;;23.00;12.57;;;1.60;99.90;;;;;;2064782;28;20209;-70
2022/03/20 03:37:22;;;;;;;21.30;14.02;;;1.50;99.90;;;;;;2065244;28;20265;-70
2022/03/20 03:38:35;;;;;;;21.60;12.93;;;1.60;99.90;;;;;;2065281;28;20226;-71
2022/03/20 03:39:35;;;;;;;20.23;12.27;;;1.60;99.90;;;;;;2064851;28;20174;-70
2022/03/20 03:40:38;;;;;;;18.67;12.77;;;1.60;99.90;;;;;;2064660;28;20191;-70
2022/03/20 03:41:38;;;;;;;22.25;13.68;;;1.50;99.90;;;;;;2064647;28;20182;-70
2022/03/20 03:42:39;;;;;;;20.87;13.37;;;1.60;99.90;;;;;;2065287;28;20249;-70
2022/03/20 03:43:40;;;;;;;21.08;13.52;;;1.60;99.90;;;;;;2065168;28;20970;-69
2022/03/20 03:44:41;;;;;;;21.00;13.40;;;1.60;99.90;;;;;;2065384;28;20179;-69
2022/03/20 03:45:43;;;;;;;20.30;13.07;;;1.60;99.90;;;;;;2065526;28;20186;-70
2022/03/20 03:46:44;;;;;;;21.67;13.65;;;1.50;99.90;;;;;;2065244;28;20177;-70
2022/03/20 03:47:44;;;;;;;22.00;13.87;;;1.50;99.90;;;;;;2065037;28;20201;-70
2022/03/20 03:48:45;;;;;;;22.60;14.27;;;1.40;99.90;;;;;;2063473;28;20175;-70
2022/03/20 03:49:46;;;;;;;22.00;14.37;;;1.30;99.90;;;;;;2064469;28;20210;-70
2022/03/20 03:50:51;;;;;;;24.37;14.20;;;1.30;99.90;;;;;;2064338;28;20174;-70
2022/03/20 03:51:52;;;;;;;22.23;14.00;;;1.20;99.90;;;;;;2063290;28;20705;-70
2022/03/20 03:52:53;;;;;;;27.07;16.03;;;1.20;99.90;;;;;;2063682;28;20179;-69
2022/03/20 03:53:54;;;;;;;24.90;13.93;;;1.20;99.90;;;;;;2064589;28;20201;-70
2022/03/20 03:54:54;;;;;;;22.37;14.10;;;1.20;99.90;;;;;;2064285;28;20187;-70
2022/03/20 03:55:55;;;;;;;25.20;14.57;;;1.30;99.90;;;;;;2064316;28;20634;-70
2022/03/20 03:56:57;;;;;;;21.83;13.90;;;1.30;99.90;;;;;;2064317;28;20543;-70
2022/03/20 03:57:58;;;;;;;26.25;15.07;;;1.40;99.90;;;;;;2064508;28;20231;-70
2022/03/20 03:58:58;;;;;;;21.75;12.65;;;1.40;99.90;;;;;;2064229;28;20182;-70
2022/03/20 03:59:59;;;;;;;24.27;15.30;;;1.40;99.90;;;;;;2064377;28;20178;-69
2022/03/20 04:01:00;;;;;;;23.67;14.10;;;1.40;99.90;;;;;;2064214;28;20200;-70
2022/03/20 04:02:01;;;;;;;23.35;14.38;;;1.40;99.90;;;;;;2063797;28;20628;-70
2022/03/20 04:03:02;;;;;;;23.27;14.87;;;1.40;99.90;;;;;;2063561;28;20229;-69
2022/03/20 04:04:03;;;;;;;27.38;14.90;;;1.40;99.90;;;;;;2064149;28;20186;-70
2022/03/20 04:05:04;;;;;;;21.70;13.80;;;1.50;99.90;;;;;;2064201;28;20191;-70
2022/03/20 04:06:05;;;;;;;24.98;16.00;;;1.50;99.90;;;;;;2064255;28;20240;-70
2022/03/20 04:07:06;;;;;;;23.15;14.70;;;1.40;99.90;;;;;;2064223;28;20187;-70
2022/03/20 04:08:08;;;;;;;24.97;14.73;;;1.50;99.90;;;;;;2063845;28;20187;-70
2022/03/20 04:09:09;;;;;;;23.73;14.88;;;1.50;99.90;;;;;;2063617;28;20177;-69
2022/03/20 04:10:10;;;;;;;25.83;14.33;;;1.50;99.90;;;;;;2064155;28;20189;-69
2022/03/20 04:11:11;;;;;;;20.57;12.83;;;1.50;99.90;;;;;;2063338;28;20179;-70
2022/03/20 04:12:13;;;;;;;22.05;13.40;;;1.50;99.70;;;;;;2055941;28;20239;-70
2022/03/20 04:13:14;;;;;;;24.27;14.73;;;1.50;99.90;;;;;;2055915;28;20195;-70
2022/03/20 04:14:15;;;;;;;20.63;12.97;;;1.60;99.90;;;;;;2063761;28;20265;-71
2022/03/20 04:15:21;;;;;;;22.20;14.10;;;1.50;99.90;;;;;;2064369;28;20257;-69
2022/03/20 04:16:22;;;;;;;22.38;14.00;;;1.50;99.90;;;;;;2063610;28;20284;-70
2022/03/20 04:17:23;;;;;;;24.53;15.20;;;1.40;99.90;;;;;;2063146;28;20589;-70
2022/03/20 04:18:24;;;;;;;24.03;15.03;;;1.40;99.90;;;;;;2060550;28;20197;-69
2022/03/20 04:19:25;;;;;;;22.13;14.60;;;1.40;99.90;;;;;;2064228;28;20425;-70
2022/03/20 04:20:26;;;;;;;28.50;15.57;;;1.40;99.90;;;;;;2064113;28;20629;-70
2022/03/20 04:21:27;;;;;;;23.27;15.43;;;1.30;99.90;;;;;;2063687;28;20191;-70
2022/03/20 04:22:29;;;;;;;27.57;16.53;;;1.40;99.90;;;;;;2064172;28;20217;-70
2022/03/20 04:23:49;;;;;;;23.70;15.13;;;1.40;99.90;;;;;;2063724;28;20686;-71
2022/03/20 04:24:50;;;;;;;22.90;13.77;;;1.40;99.90;;;;;;2063888;28;20241;-70
2022/03/20 04:25:50;;;;;;;27.77;16.30;;;1.50;99.90;;;;;;2064193;28;20646;-70
2022/03/20 04:26:53;;;;;;;24.77;15.40;;;1.50;99.90;;;;;;2064018;28;20194;-69
2022/03/20 04:27:56;;;;;;;29.38;15.88;;;1.50;99.90;;;;;;2064175;28;20175;-70
2022/03/20 04:28:57;;;;;;;26.83;16.27;;;1.50;99.90;;;;;;2064250;28;20185;-70
2022/03/20 04:29:57;;;;;;;24.33;15.87;;;1.40;99.90;;;;;;2064167;28;20181;-70
2022/03/20 04:30:58;;;;;;;25.53;14.83;;;1.50;99.90;;;;;;2063623;28;20174;-69
2022/03/20 04:31:59;;;;;;;24.47;14.93;;;1.50;99.90;;;;;;2062906;28;20202;-70
2022/03/20 04:33:00;;;;;;;23.00;15.07;;;1.50;99.90;;;;;;2071567;28;20213;-70
2022/03/20 04:34:02;;;;;;;27.58;15.57;;;1.50;99.90;;;;;;2063561;28;20182;-70
2022/03/20 04:35:04;;;;;;;28.90;16.63;;;1.50;99.90;;;;;;2063514;28;20205;-70
2022/03/20 04:36:08;;;;;;;22.25;14.55;;;1.50;99.90;;;;;;2063925;28;20712;-70
2022/03/20 04:37:10;;;;;;;23.98;15.35;;;1.50;99.90;;;;;;2063543;28;20183;-69
2022/03/20 04:38:11;;;;;;;26.52;16.42;;;1.50;99.90;;;;;;2056191;28;20196;-70
2022/03/20 04:39:12;;;;;;;25.30;16.57;;;1.50;99.90;;;;;;2063544;28;20783;-70
2022/03/20 04:40:12;;;;;;;23.17;14.33;;;1.50;99.90;;;;;;2064261;28;20217;-69
2022/03/20 04:41:13;;;;;;;28.23;16.07;;;1.50;99.90;;;;;;2063499;28;20233;-70
2022/03/20 04:42:14;;;;;;;26.37;15.27;;;1.40;99.90;;;;;;2055628;28;20198;-70
2022/03/20 04:43:17;;;;;;;24.53;14.90;;;1.50;99.90;;;;;;2055271;28;20206;-69
2022/03/20 04:44:18;;;;;;;24.42;15.25;;;1.60;99.90;;;;;;2064275;28;20264;-70
2022/03/20 04:45:19;;;;;;;24.50;15.48;;;1.50;99.90;;;;;;2063563;28;20206;-70
2022/03/20 04:46:20;;;;;;;24.40;15.20;;;1.60;99.90;;;;;;2063430;28;20552;-69
2022/03/20 04:59:13;;;;;;;25.52;14.68;;;1.20;99.90;;;;;;2060234;28;20174;-70
2022/03/20 05:00:14;;;;;;;26.63;15.30;;;1.20;99.90;;;;;;2062014;28;20594;-70
2022/03/20 05:01:15;;;;;;;26.38;15.32;;;1.10;99.90;;;;;;2056871;28;20567;-69
2022/03/20 05:02:15;;;;;;;29.27;17.00;;;1.10;99.90;;;;;;2057537;28;20183;-69
2022/03/20 05:03:16;;;;;;;28.40;15.00;;;1.10;99.90;;;;;;2057412;28;20203;-69
2022/03/20 05:04:17;;;;;;;25.87;16.50;;;1.10;99.90;;;;;;2057562;28;20174;-70
2022/03/20 05:05:18;;;;;;;25.87;15.67;;;1.10;99.90;;;;;;2064841;28;20186;-69
2022/03/20 05:06:18;;;;;;;29.45;15.48;;;1.00;99.90;;;;;;2064518;28;20179;-69
2022/03/20 05:07:19;;;;;;;24.33;15.30;;;1.00;99.90;;;;;;2064821;28;20685;-68
2022/03/20 05:08:20;;;;;;;29.03;18.40;;;0.90;99.90;;;;;;2064424;28;20558;-70
2022/03/20 05:13:20;;;;;;;26.10;16.13;;;0.80;99.90;;;;;;2065502;28;20230;-68
2022/03/20 05:14:21;;;;;;;27.13;16.20;;;0.80;99.90;;;;;;2065430;28;20236;-68
2022/03/20 05:15:21;;;;;;;29.80;18.60;;;0.80;99.90;;;;;;2065578;28;20567;-72
2022/03/20 05:16:22;;;;;;;27.13;17.33;;;0.80;99.90;;;;;;2065102;28;20181;-70
2022/03/20 05:17:23;;;;;;;26.23;17.40;;;0.70;99.90;;;;;;2065484;28;20189;-69
2022/03/20 05:18:24;;;;;;;25.37;16.07;;;0.80;99.90;;;;;;2064787;28;20197;-70
2022/03/20 05:19:25;;;;;;;29.10;17.38;;;0.80;99.90;;;;;;2064900;28;20263;-69
2022/03/20 05:20:26;;;;;;;28.20;16.42;;;0.80;99.90;;;;;;2065340;28;20212;-69
2022/03/20 05:21:26;;;;;;;28.90;15.70;;;0.80;99.90;;;;;;2064846;28;20665;-69
2022/03/20 05:22:27;;;;;;;29.63;17.60;;;0.80;99.90;;;;;;2065375;28;20248;-69
2022/03/20 05:23:28;;;;;;;24.37;16.33;;;0.80;99.90;;;;;;2064771;28;20599;-69
2022/03/20 05:24:29;;;;;;;25.60;16.53;;;0.90;99.90;;;;;;2056654;28;20241;-69
2022/03/20 05:25:29;;;;;;;26.03;16.70;;;0.80;99.90;;;;;;2064658;28;20217;-69
2022/03/20 05:26:30;;;;;;;26.95;16.25;;;0.80;99.90;;;;;;2056660;28;20260;-70
2022/03/20 05:27:31;;;;;;;28.23;17.00;;;0.80;99.90;;;;;;2056652;28;20571;-69
2022/03/20 05:28:32;;;;;;;26.00;15.90;;;0.80;99.90;;;;;;2057177;28;20803;-70
2022/03/20 05:29:33;;;;;;;25.00;15.03;;;0.90;99.90;;;;;;2056703;28;20202;-69
2022/03/20 05:30:34;;;;;;;27.17;16.77;;;0.80;99.90;;;;;;2048707;28;20275;-69
2022/03/20 05:31:35;;;;;;;28.87;17.63;;;0.80;99.90;;;;;;2056042;28;20195;-69
2022/03/20 05:32:38;;;;;;;31.35;17.10;;;0.80;99.90;;;;;;2064467;28;20708;-70
2022/03/20 05:33:41;;;;;;;28.48;16.58;;;0.80;99.90;;;;;;2064625;28;20269;-69
2022/03/20 05:34:42;;;;;;;28.95;17.70;;;0.90;99.90;;;;;;2057550;28;20728;-69
2022/03/20 05:35:45;;;;;;;27.97;17.33;;;0.90;99.90;;;;;;2064639;28;20186;-69
2022/03/20 05:36:46;;;;;;;29.20;16.73;;;0.90;99.90;;;;;;2065184;28;20181;-69
2022/03/20 05:37:47;;;;;;;31.90;18.77;;;0.80;99.90;;;;;;2065251;28;20182;-69
2022/03/20 05:38:47;;;;;;;28.00;17.23;;;0.80;99.90;;;;;;2072571;28;20264;-69
2022/03/20 05:39:48;;;;;;;28.40;16.17;;;0.80;99.90;;;;;;2072810;28;20589;-70
2022/03/20 05:40:49;;;;;;;27.87;16.67;;;0.80;99.90;;;;;;2064900;28;20186;-69
2022/03/20 05:41:51;;;;;;;28.63;16.40;;;0.80;99.90;;;;;;2064730;28;20193;-69